Ben Bolt, Texas
Current Conditions -  °F | °C
As of 3:53 PM on Friday 24 Oct 2014 (Local Time) from KALI Reporting Station
Clear Clear  
Wind Chill: 31°   Ceiling: Unl
Heat Index: 31°   Visibility: 10mi
Dew Point: 16°   Wind: 8mph
Humidity: 40%   Direction: 80°E
Pressure: 30.07"   Gusts: NA
Location:  27.65°N, 98.08°W
Report Text: KALI 242053Z AUTO 08007KT 040V100 10SM CLR 31/16 A3007 RMK AO2 SLP179 T03060156 56023
Loading
Personal Weather Stations






























Interactive Weather Map
Tropical Storm Tracking
New forecast layout! Learn more

10-Day Weather Forecast

Advertisements
Track Severe Weather on mobile